createdAt,value
2019-01-21T00:00:34.298Z,469.07
2019-01-21T00:03:05.277Z,475.40
2019-01-21T00:05:32.758Z,457.47
2019-01-21T00:08:00.467Z,456.90
2019-01-21T00:10:28.163Z,472.37
2019-01-21T00:12:55.645Z,514.63
2019-01-21T00:15:23.279Z,484.23
2019-01-21T00:17:50.902Z,497.83
2019-01-21T00:20:18.412Z,476.67
2019-01-21T00:22:46.051Z,500.00
2019-01-21T00:25:13.786Z,459.30
2019-01-21T00:27:41.425Z,521.80
2019-01-21T00:30:09.274Z,475.27
2019-01-21T00:32:36.735Z,520.20
2019-01-21T00:35:05.007Z,501.70
2019-01-21T00:37:33.427Z,535.73
2019-01-21T00:40:01.831Z,498.20
2019-01-21T00:42:29.535Z,496.07
2019-01-21T00:44:57.435Z,471.90
2019-01-21T00:47:29.740Z,527.27
2019-01-21T00:49:54.809Z,513.13
2019-01-21T00:52:22.457Z,502.00
2019-01-21T00:54:51.127Z,499.30
2019-01-21T00:57:18.805Z,532.83
2019-01-21T00:59:46.690Z,491.20
2019-01-21T01:02:14.468Z,516.93
2019-01-21T01:04:42.158Z,498.70
2019-01-21T01:07:10.169Z,537.97
2019-01-21T01:09:37.758Z,504.30
2019-01-21T01:12:05.438Z,531.43
2019-01-21T01:14:33.221Z,511.60
2019-01-21T01:17:00.820Z,529.37
2019-01-21T01:19:28.427Z,477.57
2019-01-21T01:22:15.970Z,399.27
2019-01-21T01:24:43.760Z,471.67
2019-01-21T01:27:11.334Z,492.97
2019-01-21T01:29:39.980Z,420.47
2019-01-21T01:32:08.376Z,426.73
2019-01-21T01:34:36.086Z,413.97
2019-01-21T01:37:05.334Z,446.20
2019-01-21T01:39:32.942Z,424.67
2019-01-21T01:42:00.644Z,431.93
2019-01-21T01:44:28.956Z,428.50
2019-01-21T01:46:56.784Z,455.47
2019-01-21T01:49:24.818Z,435.73
2019-01-21T01:51:52.409Z,450.13
2019-01-21T01:54:19.994Z,436.77
2019-01-21T01:56:48.523Z,436.77
2019-01-21T01:59:16.254Z,483.40
2019-01-21T02:01:43.876Z,454.90
2019-01-21T02:04:11.490Z,460.30
2019-01-21T02:06:39.152Z,461.10
2019-01-21T02:09:07.595Z,466.37
2019-01-21T02:11:51.459Z,472.53
2019-01-21T02:14:19.078Z,478.20
2019-01-21T02:16:46.741Z,438.97
2019-01-21T02:19:14.821Z,421.27
2019-01-21T02:21:43.230Z,403.67
2019-01-21T02:24:15.284Z,441.67
2019-01-21T02:27:03.650Z,410.17
2019-01-21T02:30:12.944Z,430.27
2019-01-21T02:33:43.609Z,434.70
2019-01-21T02:36:39.740Z,418.87
2019-01-21T02:39:46.118Z,431.43
2019-01-21T02:42:48.956Z,446.53
2019-01-21T02:46:10.927Z,433.23
2019-01-21T02:48:57.334Z,437.23
2019-01-21T02:51:58.631Z,425.20
2019-01-21T02:55:12.140Z,419.67
2019-01-21T02:58:28.388Z,424.17
2019-01-21T03:01:53.704Z,397.47
2019-01-21T03:05:31.364Z,419.33
2019-01-21T03:08:42.626Z,431.67
2019-01-21T03:11:59.565Z,405.47
2019-01-21T03:15:29.410Z,427.73
2019-01-21T03:18:52.941Z,429.87
2019-01-21T03:22:22.382Z,424.83
2019-01-21T03:25:27.549Z,425.90
2019-01-21T03:29:01.347Z,455.20
2019-01-21T03:32:35.029Z,434.37
2019-01-21T03:35:59.128Z,409.87
2019-01-21T03:39:09.405Z,434.50
2019-01-21T03:42:10.432Z,443.43
2019-01-21T03:45:48.527Z,445.83
2019-01-21T03:48:30.643Z,405.83
2019-01-21T03:51:55.767Z,417.30
2019-01-21T03:54:46.122Z,415.90
2019-01-21T03:57:36.227Z,405.10
2019-01-21T04:00:33.502Z,434.53
2019-01-21T04:03:46.580Z,431.07
2019-01-21T04:07:03.778Z,426.30
2019-01-21T04:09:57.627Z,435.20
2019-01-21T04:13:14.950Z,444.13
2019-01-21T04:16:16.097Z,426.40
2019-01-21T04:19:32.773Z,440.03
2019-01-21T04:22:41.011Z,432.13
2019-01-21T04:30:18.985Z,424.33
2019-01-21T04:33:53.152Z,399.10
2019-01-21T04:37:13.557Z,389.17
2019-01-21T04:40:48.969Z,444.73
2019-01-21T04:44:12.669Z,421.67
2019-01-21T04:47:15.643Z,469.17
2019-01-21T04:50:25.135Z,477.07
2019-01-21T04:53:36.508Z,508.73
2019-01-21T04:56:52.110Z,460.40
2019-01-21T05:00:26.158Z,452.13
2019-01-21T05:04:06.422Z,488.30
2019-01-21T05:07:24.193Z,469.60
2019-01-21T05:10:29.638Z,475.33
2019-01-21T05:13:33.312Z,477.40
2019-01-21T05:16:54.110Z,442.57
2019-01-21T05:20:25.089Z,441.33
2019-01-21T05:23:35.867Z,443.83
2019-01-21T05:26:50.137Z,422.90
2019-01-21T05:30:20.475Z,442.73
2019-01-21T05:33:25.951Z,444.97
2019-01-21T05:36:25.240Z,446.20
2019-01-21T05:39:37.854Z,445.10
2019-01-21T05:42:50.712Z,455.23
2019-01-21T05:46:00.046Z,467.90
2019-01-21T05:49:28.336Z,464.07
2019-01-21T05:53:18.387Z,475.60
2019-01-21T05:56:57.096Z,454.40
2019-01-21T06:00:13.523Z,463.87
2019-01-21T06:03:24.944Z,477.73
2019-01-21T06:06:23.148Z,509.10
2019-01-21T06:09:58.615Z,529.97
2019-01-21T06:13:51.868Z,528.07
2019-01-21T06:17:01.658Z,500.90
2019-01-21T06:20:29.188Z,509.70
2019-01-21T06:24:00.084Z,516.30
2019-01-21T06:27:15.712Z,486.90
2019-01-21T06:30:00.306Z,495.33
2019-01-21T06:33:07.475Z,511.37
2019-01-21T06:36:12.960Z,491.87
2019-01-21T06:39:17.214Z,522.40
2019-01-21T06:42:34.949Z,501.57
2019-01-21T06:46:02.621Z,519.63
2019-01-21T06:49:38.578Z,529.83
2019-01-21T06:53:10.918Z,533.13
2019-01-21T06:55:56.237Z,524.33
2019-01-21T06:59:29.473Z,529.80
2019-01-21T07:02:43.963Z,540.70
2019-01-21T07:05:37.345Z,527.43
2019-01-21T07:09:04.890Z,555.33
2019-01-21T07:12:13.325Z,523.07
2019-01-21T07:15:34.475Z,538.80
2019-01-21T07:18:57.024Z,538.37
2019-01-21T07:22:34.035Z,541.70
2019-01-21T07:26:00.232Z,530.03
2019-01-21T07:29:28.898Z,540.47
2019-01-21T07:32:38.649Z,557.97
2019-01-21T07:36:07.729Z,536.90
2019-01-21T07:39:11.954Z,553.37
2019-01-21T07:42:35.588Z,506.43
2019-01-21T07:46:12.299Z,528.53
2019-01-21T07:50:06.716Z,477.40
2019-01-21T07:53:26.605Z,476.53
2019-01-21T07:56:33.731Z,491.70
2019-01-21T07:59:37.537Z,521.00
2019-01-21T08:02:43.751Z,520.23
2019-01-21T08:05:59.435Z,499.90
2019-01-21T08:09:05.142Z,507.53
2019-01-21T08:12:26.062Z,485.13
2019-01-21T08:15:10.712Z,430.43
2019-01-21T08:18:31.395Z,475.83
2019-01-21T08:22:07.297Z,500.40
2019-01-21T08:25:33.586Z,424.13
2019-01-21T08:28:35.254Z,481.43
2019-01-21T08:31:39.973Z,454.97
2019-01-21T08:35:15.841Z,455.37
2019-01-21T08:38:26.361Z,453.57
2019-01-21T08:41:47.272Z,445.67
2019-01-21T08:44:43.531Z,441.77
2019-01-21T08:48:16.551Z,460.80
2019-01-21T08:51:06.923Z,456.43
2019-01-21T08:54:16.727Z,431.83
2019-01-21T08:57:47.297Z,467.27
2019-01-21T09:00:48.751Z,437.80
2019-01-21T09:04:02.580Z,451.60
2019-01-21T09:07:08.740Z,479.53
2019-01-21T09:10:08.373Z,477.50
2019-01-21T09:13:40.700Z,469.90
2019-01-21T09:16:51.181Z,435.03
2019-01-21T09:20:21.288Z,451.13
2019-01-21T09:24:11.379Z,460.13
2019-01-21T09:27:28.568Z,436.00
2019-01-21T09:30:59.465Z,425.70
2019-01-21T09:34:15.491Z,438.33
2019-01-21T09:37:37.095Z,430.83
2019-01-21T09:40:35.750Z,417.13
2019-01-21T09:43:28.892Z,472.37
2019-01-21T09:46:49.000Z,480.17
2019-01-21T09:49:15.450Z,467.93
2019-01-21T09:51:55.586Z,460.47
2019-01-21T09:54:24.802Z,483.13
2019-01-21T09:56:55.748Z,466.43
2019-01-21T09:59:24.241Z,498.93
2019-01-21T10:01:56.360Z,461.07
2019-01-21T10:04:38.000Z,449.27
2019-01-21T10:07:28.080Z,459.33
2019-01-21T10:10:06.374Z,457.73
2019-01-21T10:13:47.726Z,473.93
2019-01-21T10:16:52.954Z,470.73
2019-01-21T10:20:12.761Z,453.30
2019-01-21T10:24:12.001Z,462.27
2019-01-21T10:27:39.314Z,435.20
2019-01-21T10:30:25.448Z,437.47
2019-01-21T10:33:49.310Z,461.10
2019-01-21T10:36:58.672Z,453.27
2019-01-21T10:40:33.828Z,449.03
2019-01-21T10:43:38.997Z,470.83
2019-01-21T10:46:51.231Z,413.63
2019-01-21T10:49:57.524Z,434.67
2019-01-21T10:53:19.314Z,450.30
2019-01-21T10:56:39.067Z,438.63
2019-01-21T11:00:05.077Z,438.57
2019-01-21T11:03:00.088Z,471.70
2019-01-21T11:05:56.108Z,441.40
2019-01-21T11:09:16.018Z,435.83
2019-01-21T11:12:47.848Z,417.53
2019-01-21T11:15:48.243Z,427.17
2019-01-21T11:19:27.466Z,443.60
2019-01-21T11:22:10.489Z,446.07
2019-01-21T11:26:12.946Z,419.23
2019-01-21T11:30:04.554Z,428.07
2019-01-21T11:33:43.999Z,441.60
2019-01-21T11:37:06.065Z,440.73
2019-01-21T11:40:42.952Z,428.10
2019-01-21T11:44:17.102Z,415.73
2019-01-21T11:47:49.911Z,426.33
2019-01-21T11:51:02.958Z,455.43
2019-01-21T11:53:48.215Z,441.50
2019-01-21T11:57:03.627Z,456.27
2019-01-21T12:00:06.697Z,431.00
2019-01-21T12:03:23.647Z,448.93
2019-01-21T12:06:00.935Z,408.30
2019-01-21T12:09:16.488Z,420.80
2019-01-21T12:13:12.788Z,432.33
2019-01-21T12:16:32.769Z,423.37
2019-01-21T12:19:46.028Z,413.73
2019-01-21T12:23:20.958Z,444.37
2019-01-21T12:26:21.885Z,434.37
2019-01-21T12:29:39.384Z,418.10
2019-01-21T12:33:11.018Z,442.60
2019-01-21T12:36:08.340Z,418.40
2019-01-21T12:39:34.583Z,434.60
2019-01-21T12:42:53.508Z,443.20
2019-01-21T12:46:21.182Z,431.13
2019-01-21T12:49:56.319Z,437.00
2019-01-21T12:53:02.457Z,450.03
2019-01-21T12:56:16.145Z,451.57
2019-01-21T12:59:35.455Z,453.77
2019-01-21T13:02:47.205Z,463.20
2019-01-21T13:05:32.573Z,452.40
2019-01-21T13:08:43.095Z,477.60
2019-01-21T13:11:40.484Z,435.93
2019-01-21T13:14:30.250Z,464.57
2019-01-21T13:17:34.241Z,452.37
2019-01-21T13:20:31.893Z,431.07
2019-01-21T13:23:46.984Z,468.90
2019-01-21T13:26:33.097Z,463.20
2019-01-21T13:29:46.444Z,456.03
2019-01-21T13:32:51.140Z,474.43
2019-01-21T13:35:57.456Z,448.57
2019-01-21T13:39:09.535Z,475.63
2019-01-21T13:41:58.609Z,443.67
2019-01-21T13:44:58.186Z,464.20
2019-01-21T13:48:04.382Z,480.67
2019-01-21T13:51:08.700Z,456.73
2019-01-21T13:54:15.595Z,466.17
2019-01-21T13:57:32.169Z,468.40
2019-01-21T14:00:21.558Z,437.60
2019-01-21T14:03:11.875Z,468.83
2019-01-21T14:06:40.384Z,456.17
2019-01-21T14:10:07.281Z,467.27
2019-01-21T14:13:17.840Z,476.33
2019-01-21T14:16:17.458Z,470.80
2019-01-21T14:19:25.219Z,463.60
2019-01-21T14:22:39.605Z,448.37
2019-01-21T14:26:04.718Z,469.63
2019-01-21T14:29:10.755Z,448.10
2019-01-21T14:32:36.430Z,471.23
2019-01-21T14:36:00.567Z,455.23
2019-01-21T14:39:20.638Z,454.47
2019-01-21T14:42:49.842Z,439.23
2019-01-21T14:45:54.132Z,447.53
2019-01-21T14:49:31.475Z,456.33
2019-01-21T14:52:48.726Z,460.67
2019-01-21T14:55:46.412Z,492.70
2019-01-21T14:58:36.652Z,481.63
2019-01-21T15:01:21.597Z,484.83
2019-01-21T15:04:47.830Z,470.90
2019-01-21T15:07:41.673Z,489.50
2019-01-21T15:10:50.781Z,450.97
2019-01-21T15:13:46.421Z,472.40
2019-01-21T15:21:12.172Z,430.13
2019-01-21T15:24:41.378Z,469.30
2019-01-21T15:27:44.481Z,478.53
2019-01-21T15:31:06.405Z,434.77
2019-01-21T15:34:28.763Z,459.20
2019-01-21T15:38:19.494Z,469.40
2019-01-21T15:41:14.331Z,485.27
2019-01-21T15:44:40.399Z,446.87
2019-01-21T15:47:56.960Z,481.57
2019-01-21T15:51:05.951Z,454.27
2019-01-21T15:54:25.974Z,456.83
2019-01-21T15:57:20.827Z,475.47
2019-01-21T16:00:52.169Z,443.57
2019-01-21T16:04:02.067Z,471.40
2019-01-21T16:07:03.639Z,442.77
2019-01-21T16:10:19.362Z,439.90
2019-01-21T16:12:56.517Z,474.43
2019-01-21T16:16:24.375Z,443.03
2019-01-21T16:19:15.256Z,457.80
2019-01-21T16:22:51.737Z,436.07
2019-01-21T16:25:55.446Z,467.03
2019-01-21T16:29:12.150Z,475.33
2019-01-21T16:32:25.619Z,457.40
2019-01-21T16:36:03.108Z,466.27
2019-01-21T16:38:51.940Z,445.20
2019-01-21T16:41:51.078Z,456.23
2019-01-21T16:44:18.809Z,506.33
2019-01-21T16:46:46.318Z,480.03
2019-01-21T16:49:13.986Z,456.03
2019-01-21T16:51:41.621Z,470.10
2019-01-21T16:54:09.271Z,486.40
2019-01-21T16:56:36.946Z,482.90
2019-01-21T16:59:04.731Z,486.03
2019-01-21T17:01:32.091Z,470.13
2019-01-21T17:03:59.794Z,472.70
2019-01-21T17:06:27.206Z,497.57
2019-01-21T17:08:54.606Z,479.83
2019-01-21T17:11:22.261Z,487.93
2019-01-21T17:18:26.395Z,458.10
2019-01-21T17:20:54.008Z,450.53
2019-01-21T17:23:21.885Z,476.67
2019-01-21T17:25:50.696Z,479.47
2019-01-21T17:28:18.300Z,479.47
2019-01-21T17:30:45.666Z,473.23
2019-01-21T17:33:13.157Z,472.37
2019-01-21T17:35:40.628Z,495.30
2019-01-21T17:38:07.984Z,488.87
2019-01-21T17:40:35.467Z,482.47
2019-01-21T17:43:03.219Z,478.57
2019-01-21T17:45:30.708Z,517.30
2019-01-21T17:47:58.179Z,503.63
2019-01-21T17:50:25.536Z,483.23
2019-01-21T17:52:52.968Z,502.07
2019-01-21T17:55:20.612Z,483.20
2019-01-21T17:57:48.278Z,520.87
2019-01-21T18:00:20.485Z,485.80
2019-01-21T18:02:48.324Z,523.20
2019-01-21T18:05:16.510Z,478.33
2019-01-21T18:07:44.267Z,476.83
2019-01-21T18:10:13.801Z,476.40
2019-01-21T18:12:42.545Z,536.47
2019-01-21T18:15:11.479Z,490.13
2019-01-21T18:17:39.456Z,531.33
2019-01-21T18:20:15.841Z,492.87
2019-01-21T18:22:43.980Z,525.00
2019-01-21T18:25:12.247Z,500.93
2019-01-21T18:27:42.019Z,511.30
2019-01-21T18:30:15.897Z,502.60
2019-01-21T18:35:25.970Z,479.03
2019-01-21T18:37:55.341Z,531.33
2019-01-21T18:40:24.423Z,480.30
2019-01-21T18:42:53.884Z,513.07
2019-01-21T18:45:27.272Z,483.13
2019-01-21T18:47:55.418Z,518.77
2019-01-21T18:50:24.854Z,485.40
2019-01-21T18:52:52.867Z,547.93
2019-01-21T18:55:20.763Z,508.47
2019-01-21T18:57:55.718Z,529.30
2019-01-21T19:00:22.336Z,486.33
2019-01-21T19:02:50.214Z,514.90
2019-01-21T19:05:18.712Z,469.63
2019-01-21T19:07:47.044Z,515.50
2019-01-21T19:10:17.141Z,477.33
2019-01-21T19:12:44.922Z,491.43
2019-01-21T19:15:22.812Z,486.40
2019-01-21T19:17:50.640Z,489.37
2019-01-21T19:20:19.772Z,485.33
2019-01-21T19:22:48.249Z,499.50
2019-01-21T19:25:16.038Z,476.90
2019-01-21T19:27:44.266Z,548.97
2019-01-21T19:30:16.295Z,509.30
2019-01-21T19:32:44.268Z,499.00
2019-01-21T19:35:14.853Z,502.63
2019-01-21T19:37:43.433Z,522.53
2019-01-21T19:40:15.537Z,528.60
2019-01-21T19:42:43.770Z,510.70
2019-01-21T19:45:12.249Z,510.00
2019-01-21T19:47:40.075Z,540.20
2019-01-21T19:50:09.185Z,490.30
2019-01-21T19:52:36.991Z,514.07
2019-01-21T19:55:09.793Z,500.70
2019-01-21T19:57:38.253Z,519.20
2019-01-21T20:00:11.750Z,530.03
2019-01-21T20:02:39.537Z,520.83
2019-01-21T20:05:09.050Z,496.60
2019-01-21T20:07:37.395Z,458.80
2019-01-21T20:10:07.513Z,476.20
2019-01-21T20:12:35.446Z,528.33
2019-01-21T20:15:05.909Z,491.93
2019-01-21T20:17:33.804Z,507.57
2019-01-21T20:20:02.385Z,490.00
2019-01-21T20:22:30.571Z,509.07
2019-01-21T20:24:59.119Z,508.13
2019-01-21T20:27:27.100Z,532.70
2019-01-21T20:29:54.990Z,490.03
2019-01-21T20:32:23.269Z,512.90
2019-01-21T20:34:59.193Z,503.57
2019-01-21T20:37:27.377Z,520.03
2019-01-21T20:39:55.677Z,419.27
2019-01-21T20:42:24.245Z,461.30
2019-01-21T20:44:51.690Z,457.70
2019-01-21T20:47:19.125Z,508.10
2019-01-21T20:49:46.679Z,471.47
2019-01-21T20:52:15.634Z,483.83
2019-01-21T20:54:43.937Z,485.43
2019-01-21T20:57:11.687Z,522.27
2019-01-21T20:59:39.384Z,462.07
2019-01-21T21:02:07.255Z,485.77
2019-01-21T21:04:35.201Z,494.63
2019-01-21T21:07:03.459Z,512.63
2019-01-21T21:09:31.906Z,495.00
2019-01-21T21:12:00.879Z,507.10
2019-01-21T21:14:30.100Z,500.27
2019-01-21T21:16:58.211Z,477.57
2019-01-21T21:19:26.804Z,495.70
2019-01-21T21:21:54.923Z,482.43
2019-01-21T21:24:23.220Z,471.13
2019-01-21T21:26:51.598Z,479.50
2019-01-21T21:29:19.846Z,497.33
2019-01-21T21:31:48.611Z,482.50
2019-01-21T21:34:17.070Z,506.40
2019-01-21T21:36:45.328Z,460.37
2019-01-21T21:39:13.621Z,461.10
2019-01-21T21:41:42.221Z,453.13
2019-01-21T21:44:11.755Z,504.03
2019-01-21T21:46:40.765Z,457.23
2019-01-21T21:49:08.885Z,484.87
2019-01-21T21:51:37.326Z,496.33
2019-01-21T21:54:05.480Z,484.80
2019-01-21T21:56:33.648Z,472.30
2019-01-21T21:59:01.815Z,492.80
2019-01-21T22:01:30.206Z,497.73
2019-01-21T22:03:58.512Z,499.20
2019-01-21T22:06:26.583Z,492.03
2019-01-21T22:08:54.923Z,479.10
2019-01-21T22:11:23.327Z,484.73
2019-01-21T22:13:51.515Z,499.93
2019-01-21T22:16:19.679Z,494.50
2019-01-21T22:18:47.856Z,479.33
2019-01-21T22:21:16.056Z,500.40
2019-01-21T22:23:44.127Z,487.87
2019-01-21T22:26:12.029Z,485.17
2019-01-21T22:28:40.165Z,470.43
2019-01-21T22:31:07.928Z,481.50
2019-01-21T22:33:35.619Z,493.63
2019-01-21T22:36:03.218Z,454.53
2019-01-21T22:38:31.970Z,483.43
2019-01-21T22:40:59.588Z,485.43
2019-01-21T22:43:27.473Z,469.07
2019-01-21T22:45:55.156Z,486.23
2019-01-21T22:48:22.824Z,450.37
2019-01-21T22:50:50.901Z,479.33
2019-01-21T22:53:18.592Z,474.33
2019-01-21T22:55:46.225Z,455.97
2019-01-21T22:58:13.818Z,493.07
2019-01-21T23:00:58.039Z,459.63
2019-01-21T23:03:27.903Z,489.47
2019-01-21T23:05:55.804Z,466.40
2019-01-21T23:08:23.510Z,472.13
2019-01-21T23:10:51.034Z,476.37
2019-01-21T23:13:18.833Z,469.70
2019-01-21T23:15:48.783Z,488.10
2019-01-21T23:18:16.764Z,450.13
2019-01-21T23:20:44.245Z,469.87
2019-01-21T23:23:11.863Z,431.83
2019-01-21T23:25:39.664Z,465.03
2019-01-21T23:28:07.166Z,480.80
2019-01-21T23:30:35.630Z,387.70
2019-01-21T23:33:04.623Z,448.27
2019-01-21T23:35:32.250Z,455.23
2019-01-21T23:37:59.936Z,453.07
2019-01-21T23:40:27.774Z,432.17
2019-01-21T23:42:55.398Z,487.00
2019-01-21T23:45:23.100Z,463.63
2019-01-21T23:47:50.883Z,495.17
2019-01-21T23:50:18.321Z,452.30
2019-01-21T23:52:45.786Z,485.80
2019-01-21T23:55:13.514Z,474.83
2019-01-21T23:57:41.317Z,482.63
